Carlisle, Washington
Current Conditions -  °F | °C
As of 4:53 AM on Tuesday 21 Oct 2014 (Local Time) from KHQM Reporting Station
Broken Clouds Broken Clouds  
Wind Chill: 57°   Ceiling: 7000
Heat Index: 57°   Visibility: 8mi
Dew Point: 55°   Wind: 12mph
Humidity: 93%   Direction: 190°S
Pressure: 29.82"   Gusts: NA
Location:  47.1425°N, 124.097°W
Report Text: KHQM 211153Z AUTO 19010KT 8SM FEW020 SCT027 BKN070 14/13 A2982 RMK AO2 RAE1055 SLP101 P0000 60013 70050 T01390128 10144 20133 52006
Loading
Personal Weather Stations






























Interactive Weather Map
Tropical Storm Tracking
New forecast layout! Learn more

10-Day Weather Forecast

Advertisements
Track Severe Weather on mobile